Details From KJFK - John F Kennedy Intl
To TNCM - St Maarten - Princess Juliana Intl
Flight Number -
Tags Decoded
Created
Modified
Stats Distance 1,464 nm / 2,711 km
Max Altitude 0 ft / 0 m
Waypoints 3
Social Downloads 0
Likes 0
Share VATSIM

Download

Looking for another format? Having issues loading an existing format? Contact us
Advertisement - Login to hide

Notes

Decoded

Route

KJFK BEXUM TNCM

ID Type Via Altitude Latitude Longitude Leg Dist Tot Dist Heading (true) Name
O KJFK APT - 0 ft / 0 m 40.62537˚ -73.77035˚ - 0 nm - -
BEXUM FIX - 0 ft / 0 m 33.30231˚ -69.81247˚ 478 nm 478 nm 155° / 158° -
O TNCM APT - 0 ft / 0 m 18.03937˚ -63.11961˚ 984 nm 1463 nm 157° / 160° -

Altitude Profile

Advertisement - Login to hide

Weather


0- 5 10 15 20 25 30 35+ Temperature / ° C

Clouds and Precipitation
Forecast for 2017-12-11 12:00 UTC. Updated 2 hours ago

Ground ~20,000 ft ~40,000 ft Winds

KJFK

Details ICAO KJFK (JFK)
Name John F Kennedy Intl
Region United States
Timezone America/New_York (UTC-5.0)
Stats Elevation 13 ft / 4 m (AMSL)
Location 40.639904° -73.776661°
Runways 4
Magnetic Variation 12.995° W

METAR

KJFK 111251Z 24011KT 10SM FEW035 BKN070 BKN220 01/M02 A3004 RMK AO2 SLP173 T00111017

Decode

TAF

TAF KJFK 111140Z 1112/1218 25015G25KT P6SM OVC040 FM111400 27012G20KT P6SM SCT040 SCT250 FM112200 25008KT P6SM BKN250 FM120300 20005KT P6SM OVC250 FM120800 17007KT 6SM -RASN SCT025 OVC100 FM121200 19012G18KT 4SM -RA BKN020

Decode

Departure Runways

ID Width Length Bearing (true) Bearing (mag) Surface Threshold Offset Overrun Length
04L 151 ft / 46 m 11,358 ft / 3,462 m 30.66° 43.66° Asphalt 0 ft / 0 m 200 ft / 61 m
04R 200 ft / 61 m 8,405 ft / 2,562 m 30.67° 43.67° Asphalt 0 ft / 0 m 0 ft / 0 m
13L 151 ft / 46 m 9,986 ft / 3,044 m 120.85° 133.85° Asphalt 988 ft / 301 m 400 ft / 122 m
13R 151 ft / 46 m 14,553 ft / 4,436 m 120.83° 133.83° Asphalt 2,605 ft / 794 m 400 ft / 122 m
22L 200 ft / 61 m 8,405 ft / 2,562 m 210.68° 223.68° Asphalt 0 ft / 0 m 545 ft / 166 m
22R 151 ft / 46 m 11,358 ft / 3,462 m 210.67° 223.67° Asphalt 2,697 ft / 822 m 604 ft / 184 m
31L 151 ft / 46 m 14,553 ft / 4,436 m 300.86° 313.86° Asphalt 3,317 ft / 1,011 m 600 ft / 183 m
31R 151 ft / 46 m 9,986 ft / 3,044 m 300.87° 313.87° Asphalt 1,030 ft / 314 m 246 ft / 75 m

TNCM

Details ICAO TNCM (SXM)
Name St Maarten - Princess Juliana Intl
Region Caribbean Netherlands, Aruba, Curaçao, Sint Maarten
Timezone Unknown (UTC+0.0)
Stats Elevation 12 ft / 4 m (AMSL)
Location 18.040889° -63.108974°
Runways 1
Magnetic Variation 14.325° W

METAR

TNCM 111300Z 06011KT 9999 FEW022 28/21 Q1014 A2996 NOSIG

Decode

TAF

TAF TNCM 111141Z 1112/1212 06010KT P6SM FEW020

Decode

Destination Runways

ID Width Length Bearing (true) Bearing (mag) Surface Threshold Offset Overrun Length
10 148 ft / 45 m 7,464 ft / 2,275 m 81.43° 95.75° Asphalt 0 ft / 0 m 151 ft / 46 m
28 148 ft / 45 m 7,464 ft / 2,275 m 261.44° 275.76° Asphalt 397 ft / 121 m 0 ft / 0 m

Popular Alternatives